NCAR-RAP Real-Time Weather Data

Output produced by METARs form (23 June 2021  09:38 UTC)
found at http://weather.rap.ucar.edu/surface/
 
CYVT 230900Z AUTO 33008KT 9SM SCT025 BKN130 BKN180 14/11 A2952 RMK SLP999 DENSITY ALT 2200FT
CYVT 230800Z AUTO 33013G18KT 9SM SCT055 SCT130 BKN150 OVC180 15/12 A2949 RMK SLP990 DENSITY ALT 2300FT
CYVT 230700Z AUTO 32011KT 9SM BKN110 BKN130 16/12 A2948 RMK SLP987 DENSITY ALT 2400FT
CYVT 230600Z AUTO 33008KT 9SM FEW110 SCT150 OVC170 16/12 A2946 RMK SLP981 DENSITY ALT 2400FT
CYVT 230500Z AUTO 35008KT 9SM BKN130 OVC160 17/11 A2944 RMK SLP973 DENSITY ALT 2600FT
CYVT 230400Z AUTO 36010G15KT 9SM SCT110 BKN130 OVC200 18/11 A2942 RMK PRESRR SLP965 DENSITY ALT 2800FT
CYVT 230300Z AUTO 31006KT 240V330 9SM SCT071 SCT110 SCT140 21/13 A2938 RMK PRESRR SLP955 DENSITY ALT 3100FT
CYVT 230200Z AUTO 26006KT 9SM FEW130 OVC150 22/15 A2936 RMK SLP948 DENSITY ALT 3200FT
CYVT 230100Z AUTO 26006KT 9SM SCT130 OVC150 21/16 A2936 RMK SLP948 DENSITY ALT 3200FT
CYVT 230000Z AUTO 25005KT 9SM BKN120 OVC150 20/15 A2936 RMK SLP950 DENSITY ALT 3000FT
CYVT 222300Z AUTO 22004KT 9SM FEW096 BKN120 OVC140 19/14 A2937 RMK SLP952 DENSITY ALT 2900FT
CYVT 222202Z AUTO 20003KT 9SM SCT100 OVC120 18/14 A2938 RMK LTNG DIST E SE PRESFR SLP954 DENSITY ALT 2800FT
CYVT 222200Z AUTO 20004KT 9SM -RA BKN100 OVC120 18/14 A2938 RMK LTNG DIST E SE PRESFR SLP956 DENSITY ALT 2800FT
CYVT 222153Z AUTO 20005KT 190V320 9SM -RA FEW055 BKN100 OVC120 17/14 A2939 RMK LTNG DIST SE PRESFR SLP957 DENSITY ALT 2700FT
CYVT 222145Z AUTO 30003KT 230V330 9SM -RA VCTS FEW050 SCT071 SCT095 OVC120 17/14 A2940 RMK LTNG DIST SE PRESFR SLP961 DENSITY ALT 2600FT
 
CWVT 230900Z AUTO 32009KT 14/11 RMK AO1 PK WND 32017/0807 SLP012 T01430110 53017
CWVT 230800Z AUTO 32010G15KT 16/11 RMK AO1 SLP003 T01560112 51016
CWVT 230700Z AUTO 31008KT 16/11 RMK AO1 SLP000 T01580112 51021
CWVT 230600Z AUTO 32007KT 16/12 RMK AO1 1025 SLP994 T01580117 50002
CWVT 230500Z AUTO 34007KT 17/11 RMK AO1 2PAST HR 3025 SLP986 P0001 T01730106 50002
CWVT 230400Z AUTO 34008KT 18/10 RMK AO1 PK WND 31020/0303 SLP978 T01830101 53017
CWVT 230300Z AUTO 27002KT 20/14 RMK AO1 SLP969 T01950142 53006
CWVT 230200Z AUTO 25002KT 21/15 RMK AO1 SLP961 T02130154 55002
CWVT 230100Z AUTO 26002KT 21/15 RMK AO1 SLP962 T02100152 56006
CWVT 230000Z AUTO 23003KT 19/15 RMK AO1 0001 SLP965 T01900148 50021
CWVT 232300Z AUTO 20002KT 19/14 RMK AO1 0000 SLP966 T01900136 50021
CWVT 222200Z AUTO 17003KT 17/14 RMK AO1 1PAST HR 5003 PK WND 22027/2118 SLP969 P0008 T01690138 50021
 
CWHN 230900Z AUTO 29004KT 250V330 9SM CLR 13/10 A2959 RMK SLP025
CWHN 230800Z AUTO 29005KT 200V350 9SM SCT076 14/10 A2957 RMK SLP016
CWHN 230700Z AUTO 31005KT 250V340 9SM FEW076 15/10 A2955 RMK SLP009
CWHN 230600Z AUTO 32010G17KT 290V360 9SM FEW086 16/09 A2953 RMK SLP000
CWHN 230500Z AUTO 32014G22KT 290V350 9SM BKN097 17/09 A2953 RMK SLP998
CWHN 230400Z AUTO 31013G24KT 260V330 9SM CLR 20/11 A2950 RMK SLP988
CWHN 230300Z AUTO 30004KT 270V340 9SM CLR 19/11 A2948 RMK SLP982
CWHN 230200Z AUTO 31006KT 270V360 9SM BKN088 19/11 A2946 RMK SLP978
CWHN 230100Z AUTO 32008G16KT 260V360 9SM FEW079 SCT096 23/10 A2944 RMK SLP970
CWHN 230000Z AUTO 30007G20KT 9SM FEW057 FEW092 26/09 A2942 RMK SLP963
CWHN 222300Z AUTO 27012G21KT 9SM FEW034 FEW079 26/10 A2942 RMK SLP965
CWHN 222200Z AUTO 28014G24KT 230V330 9SM FEW076 26/08 A2943 RMK SLP967